Aéroport de Guadeloupe - Pôle Caraïbes, Guadeloupe

04:57 AST le 25 juillet 2014 (GMT -0400)
Le Raizet (TFFR) Alt. 26 ft | 16.27 °N, 61.53 °W | Change Station

Current weather conditions updated 27 minutes ago

Mostly Cloudy
Nuageux
79 ° F
Paraît 79 ° F
N
6
Vent Variable Vent de ENE

Aujourd’hui il est prévu de faire pratiquement la même température qu’hier.

Aujourd'hui
Haut(e) -- | Bas -- ° F
--% Risque de précip.
Hier
Haut(e) -- | Bas -- ° F
Precip. -- pouce
5:45 AM 6:40 PM
Lune descendante, 2% visible
Pression 30.01 pouce
Visibilité 6.2 Miles terrestres
Nuages Peu 1500 ft
Nuageux 3100 ft
Nuageux 3800 ft
Point de rosée 75 ° F
Humidité 89%
Précipitations 0.00 pouce
Profondeur de la couche neigeuse Non disponible.
UV 0 sur 12
Pollen Non disponible.
Qualité de l'air Non disponible.
Flu Activity Non disponible.
METAR TFFR 250830Z AUTO 07005KT 9999 FEW015/// BKN031/// BKN038/// ///TCU 26/24 Q1016

More Conditions Fewer Conditions

Pression 30.01 pouce
Visibilité 6.2 Miles terrestres
Nuages Peu 1500 ft
Nuageux 3100 ft
Nuageux 3800 ft
Point de rosée 75 ° F
Humidité 89%
Précipitations 0.00 pouce
Profondeur de la couche neigeuse Non disponible.
UV 0 sur 12
Pollen Non disponible.
Qualité de l'air Non disponible.
Flu Activity Non disponible.
METAR TFFR 250830Z AUTO 07005KT 9999 FEW015/// BKN031/// BKN038/// ///TCU 26/24 Q1016

More Conditions Fewer Conditions

10-Day Weather Forecast

Almanac

Astronomie

Jul. 25, 2014 Lever Coucher
Temps réel 05:45 AST 18:40 AST
Crépuscule civil 05:21 AST 19:03 AST
Crépuscule nautique 04:54 AST 19:30 AST
Crépuscule astronomique 04:26 AST 19:58 AST
Lune 04:35 AST 17:41 AST
Durée de lumière visible 13h 41m
Longueur du jour
12h 55m
Tomorrow will be 0m 36s shorter.
Lune descendante, 2% of the Moon is Illuminated
Aujourd'hui
Lune descendante
juil 26
Nouveau
août 3
Premier quartier
août 10
Pleine lune
août 17
Dernier quartier

Les extrêmes de température d’hier

Country Highs Country Lows

Community

WunderPhotos

Upload Photos

1,737,276 Photos téléchargées !

Nearby

Qualité de l'air

Not available.

Épaisseur de neige

Not available.

Activité sismique

Ville Distance Mag. Time & Date
No recent earthquake activity has been reported nearby.
Minimum magnitude displayed is 2.5.

Températures des eaux côtières

Lieu Température
Aucun rapport de station

Stations météo à proximité

Emplacement de la station Température indice de chaleur Point de rosée Humidité Vent Precip. Alt. Mise à jour Type
FWI, Sainte Rose 77.2 ° F 78 ° F 77 ° F 99% SE  à  0.0 mph 0.05 pouce / hr 164 ft 4:56 AM AST Rapid Fire (temps réel)

Show More Stations Show Fewer Stations